createdAt,value
2022-09-22T00:01:13.102Z,101511.31
2022-09-22T00:03:43.065Z,101509.47
2022-09-22T00:06:13.171Z,101514.94
2022-09-22T00:08:42.521Z,101511.25
2022-09-22T00:11:17.132Z,101517.31
2022-09-22T00:13:47.043Z,101510.75
2022-09-22T00:16:14.380Z,101516.66
2022-09-22T00:18:41.188Z,101515.47
2022-09-22T00:21:13.540Z,101513.09
2022-09-22T00:23:42.511Z,101515.50
2022-09-22T00:26:11.827Z,101511.28
2022-09-22T00:28:39.485Z,101510.41
2022-09-22T00:31:08.241Z,101506.41
2022-09-22T00:33:35.597Z,101510.06
2022-09-22T00:36:03.297Z,101504.69
2022-09-22T00:38:30.709Z,101503.16
2022-09-22T00:40:57.432Z,101502.84
2022-09-22T00:43:27.094Z,101504.50
2022-09-22T00:45:59.265Z,101500.88
2022-09-22T00:48:28.983Z,101504.88
2022-09-22T00:50:57.723Z,101497.34
2022-09-22T00:53:25.152Z,101501.16
2022-09-22T00:55:58.164Z,101488.28
2022-09-22T00:58:37.532Z,101489.22
2022-09-22T01:01:04.462Z,101486.13
2022-09-22T01:03:31.304Z,101479.69
2022-09-22T01:06:02.905Z,101474.78
2022-09-22T01:08:31.360Z,101487.22
2022-09-22T01:10:59.496Z,101477.78
2022-09-22T01:13:50.031Z,101476.81
2022-09-22T01:16:25.544Z,101478.47
2022-09-22T01:19:11.676Z,101483.38
2022-09-22T01:21:46.620Z,101477.28
2022-09-22T01:24:42.271Z,101475.53
2022-09-22T01:27:59.454Z,101473.31
2022-09-22T01:30:36.609Z,101474.53
2022-09-22T01:33:23.150Z,101472.53
2022-09-22T01:36:02.840Z,101465.84
2022-09-22T01:39:10.269Z,101468.34
2022-09-22T01:41:51.833Z,101465.16
2022-09-22T01:44:27.144Z,101464.19
2022-09-22T01:47:00.075Z,101454.66
2022-09-22T01:49:29.889Z,101460.59
2022-09-22T01:52:00.684Z,101455.88
2022-09-22T01:54:39.651Z,101455.91
2022-09-22T01:57:17.887Z,101455.22
2022-09-22T01:59:51.155Z,101455.34
2022-09-22T02:02:28.550Z,101456.28
2022-09-22T02:04:59.344Z,101454.38
2022-09-22T02:07:40.096Z,101450.59
2022-09-22T02:10:12.804Z,101463.44
2022-09-22T02:12:39.294Z,101461.78
2022-09-22T02:15:27.049Z,101457.56
2022-09-22T02:18:01.031Z,101453.81
2022-09-22T02:20:28.138Z,101459.09
2022-09-22T02:22:54.850Z,101458.94
2022-09-22T02:25:23.654Z,101455.28
2022-09-22T02:27:53.490Z,101456.22
2022-09-22T02:30:20.113Z,101453.22
2022-09-22T02:32:50.110Z,101445.03
2022-09-22T02:35:17.303Z,101453.25
2022-09-22T02:37:51.129Z,101450.53
2022-09-22T02:40:48.288Z,101448.44
2022-09-22T02:43:32.079Z,101445.84
2022-09-22T02:46:17.210Z,101444.75
2022-09-22T02:48:51.356Z,101438.97
2022-09-22T02:51:18.707Z,101440.50
2022-09-22T02:53:45.232Z,101439.78
2022-09-22T02:56:11.761Z,101450.41
2022-09-22T02:58:38.184Z,101450.53
2022-09-22T03:01:04.790Z,101447.03
2022-09-22T03:03:31.985Z,101443.53
2022-09-22T03:05:58.393Z,101447.16
2022-09-22T03:08:24.926Z,101446.72
2022-09-22T03:10:51.377Z,101448.69
2022-09-22T03:13:17.839Z,101441.09
2022-09-22T03:15:45.453Z,101439.16
2022-09-22T03:18:12.357Z,101433.41
2022-09-22T03:20:38.905Z,101440.22
2022-09-22T03:23:05.589Z,101435.53
2022-09-22T03:25:32.216Z,101442.19
2022-09-22T03:27:58.624Z,101438.72
2022-09-22T03:30:25.145Z,101437.03
2022-09-22T03:32:51.555Z,101436.59
2022-09-22T03:35:17.989Z,101430.78
2022-09-22T03:37:46.248Z,101431.28
2022-09-22T03:40:13.146Z,101428.00
2022-09-22T03:42:39.551Z,101433.56
2022-09-22T03:45:06.289Z,101427.53
2022-09-22T03:47:32.743Z,101433.13
2022-09-22T03:49:59.156Z,101424.34
2022-09-22T03:52:25.866Z,101421.00
2022-09-22T03:54:52.890Z,101424.16
2022-09-22T03:57:19.321Z,101418.66
2022-09-22T03:59:45.756Z,101418.19
2022-09-22T04:02:14.044Z,101419.16
2022-09-22T04:04:40.639Z,101426.44
2022-09-22T04:07:07.705Z,101421.41
2022-09-22T04:09:34.824Z,101417.88
2022-09-22T04:12:01.582Z,101421.75
2022-09-22T04:14:28.012Z,101414.84
2022-09-22T04:16:54.538Z,101411.50
2022-09-22T04:19:21.050Z,101409.38
2022-09-22T04:21:47.436Z,101406.34
2022-09-22T04:24:13.921Z,101402.22
2022-09-22T04:26:51.755Z,101404.47
2022-09-22T04:29:27.192Z,101405.38
2022-09-22T04:31:53.635Z,101395.31
2022-09-22T04:34:20.101Z,101394.50
2022-09-22T04:36:46.481Z,101388.31
2022-09-22T04:39:12.891Z,101392.63
2022-09-22T04:41:39.277Z,101389.84
2022-09-22T04:44:05.691Z,101383.88
2022-09-22T04:46:32.149Z,101379.41
2022-09-22T04:48:58.653Z,101384.09
2022-09-22T04:51:25.091Z,101376.34
2022-09-22T04:53:51.688Z,101391.56
2022-09-22T04:56:18.082Z,101378.47
2022-09-22T04:58:44.524Z,101382.00
2022-09-22T05:01:11.235Z,101382.78
2022-09-22T05:03:38.948Z,101390.88
2022-09-22T05:06:06.769Z,101411.34
2022-09-22T05:08:33.520Z,101409.13
2022-09-22T05:10:59.938Z,101415.56
2022-09-22T05:13:26.852Z,101416.25
2022-09-22T05:15:53.280Z,101413.53
2022-09-22T05:18:20.665Z,101407.78
2022-09-22T05:20:47.516Z,101418.09
2022-09-22T05:23:13.952Z,101412.31
2022-09-22T05:25:40.428Z,101419.59
2022-09-22T05:28:06.897Z,101418.06
2022-09-22T05:30:34.129Z,101418.66
2022-09-22T05:33:00.543Z,101418.97
2022-09-22T05:35:26.978Z,101415.63
2022-09-22T05:37:53.844Z,101424.88
2022-09-22T05:40:23.642Z,101422.03
2022-09-22T05:42:51.637Z,101418.66
2022-09-22T05:45:19.587Z,101423.06
2022-09-22T05:47:46.552Z,101422.59
2022-09-22T05:50:14.910Z,101426.41
2022-09-22T05:52:41.469Z,101420.19
2022-09-22T05:55:10.219Z,101424.75
2022-09-22T05:57:36.657Z,101431.28
2022-09-22T06:00:08.031Z,101432.97
2022-09-22T06:02:34.580Z,101435.78
2022-09-22T06:05:01.074Z,101438.13
2022-09-22T06:07:27.693Z,101438.41
2022-09-22T06:09:54.145Z,101437.50
2022-09-22T06:12:20.625Z,101440.34
2022-09-22T06:14:47.072Z,101434.56
2022-09-22T06:17:13.561Z,101438.75
2022-09-22T06:19:40.415Z,101441.09
2022-09-22T06:22:08.628Z,101444.31
2022-09-22T06:24:35.052Z,101447.13
2022-09-22T06:27:01.539Z,101447.22
2022-09-22T06:29:28.354Z,101445.47
2022-09-22T06:31:54.859Z,101450.13
2022-09-22T06:34:21.395Z,101443.44
2022-09-22T06:36:47.834Z,101454.47
2022-09-22T06:39:14.841Z,101444.91
2022-09-22T06:41:41.256Z,101445.09
2022-09-22T06:44:08.989Z,101442.94
2022-09-22T06:46:35.576Z,101443.50
2022-09-22T06:49:02.523Z,101448.19
2022-09-22T06:51:32.872Z,101444.50
2022-09-22T06:54:04.914Z,101442.31
2022-09-22T06:56:37.881Z,101441.25
2022-09-22T06:59:10.912Z,101439.34
2022-09-22T07:01:38.318Z,101440.81
2022-09-22T07:04:04.943Z,101449.34
2022-09-22T07:06:31.516Z,101444.31
2022-09-22T07:08:58.008Z,101447.28
2022-09-22T07:11:24.776Z,101445.03
2022-09-22T07:13:53.322Z,101452.47
2022-09-22T07:16:24.235Z,101452.91
2022-09-22T07:18:56.207Z,101451.31
2022-09-22T07:21:27.147Z,101455.50
2022-09-22T07:23:55.316Z,101452.47
2022-09-22T07:26:26.445Z,101449.16
2022-09-22T07:28:54.114Z,101459.19
2022-09-22T07:31:26.267Z,101464.31
2022-09-22T07:33:55.621Z,101462.44
2022-09-22T07:36:26.005Z,101458.34
2022-09-22T07:38:54.557Z,101464.97
2022-09-22T07:41:23.706Z,101462.69
2022-09-22T07:43:52.734Z,101467.09
2022-09-22T07:46:20.185Z,101462.03
2022-09-22T07:48:47.833Z,101466.38
2022-09-22T07:51:21.438Z,101463.91
2022-09-22T07:54:02.463Z,101456.81
2022-09-22T07:56:30.984Z,101462.03
2022-09-22T07:58:57.720Z,101464.78
2022-09-22T08:01:26.327Z,101468.25
2022-09-22T08:03:52.747Z,101466.06
2022-09-22T08:06:23.608Z,101467.34
2022-09-22T08:08:55.236Z,101467.34
2022-09-22T08:11:24.970Z,101464.09
2022-09-22T08:13:57.064Z,101468.91
2022-09-22T08:16:28.168Z,101469.16
2022-09-22T08:18:56.451Z,101472.81
2022-09-22T08:21:27.296Z,101467.22
2022-09-22T08:23:54.375Z,101468.88
2022-09-22T08:26:21.283Z,101469.13
2022-09-22T08:28:52.665Z,101472.38
2022-09-22T08:31:20.736Z,101468.75
2022-09-22T08:33:49.163Z,101470.19
2022-09-22T08:36:16.428Z,101472.03
2022-09-22T08:38:43.625Z,101462.38
2022-09-22T08:41:21.421Z,101464.16
2022-09-22T08:43:57.385Z,101462.19
2022-09-22T08:46:44.979Z,101461.75
2022-09-22T08:49:54.834Z,101466.56
2022-09-22T08:52:35.466Z,101460.19
2022-09-22T08:55:03.229Z,101460.94
2022-09-22T08:57:41.236Z,101457.38
2022-09-22T09:00:15.549Z,101456.69
2022-09-22T09:03:09.724Z,101462.78
2022-09-22T09:06:12.164Z,101461.59
2022-09-22T09:08:47.666Z,101461.91
2022-09-22T09:14:11.860Z,101456.63
2022-09-22T09:16:56.988Z,101458.78
2022-09-22T09:19:44.268Z,101461.44
2022-09-22T09:22:25.311Z,101458.75
2022-09-22T09:25:23.942Z,101457.41
2022-09-22T09:28:27.530Z,101452.22
2022-09-22T09:31:05.904Z,101456.91
2022-09-22T09:33:52.595Z,101454.72
2022-09-22T09:36:22.711Z,101452.13
2022-09-22T09:38:54.693Z,101446.78
2022-09-22T09:41:31.269Z,101443.66
2022-09-22T09:43:59.331Z,101450.72
2022-09-22T09:46:44.007Z,101441.69
2022-09-22T09:49:17.518Z,101438.81
2022-09-22T09:51:50.642Z,101435.59
2022-09-22T09:54:18.986Z,101438.47
2022-09-22T09:57:02.924Z,101435.09
2022-09-22T09:59:48.003Z,101434.88
2022-09-22T10:02:15.946Z,101436.47
2022-09-22T10:04:51.032Z,101426.03
2022-09-22T10:07:24.577Z,101422.81
2022-09-22T10:09:52.383Z,101416.72
2022-09-22T10:12:27.640Z,101415.41
2022-09-22T10:15:00.111Z,101418.00
2022-09-22T10:17:41.478Z,101421.22
2022-09-22T10:20:23.090Z,101407.06
2022-09-22T10:22:49.817Z,101405.97
2022-09-22T10:25:24.038Z,101403.44
2022-09-22T10:28:14.747Z,101397.84
2022-09-22T10:30:41.655Z,101397.66
2022-09-22T10:33:21.477Z,101407.94
2022-09-22T10:36:12.421Z,101396.47
2022-09-22T10:38:41.477Z,101393.34
2022-09-22T10:41:17.816Z,101395.09
2022-09-22T10:43:52.114Z,101384.09
2022-09-22T10:46:49.867Z,101390.03
2022-09-22T10:49:40.940Z,101396.88
2022-09-22T10:52:30.777Z,101388.84
2022-09-22T10:55:14.797Z,101383.53
2022-09-22T10:58:16.947Z,101384.88
2022-09-22T11:00:44.004Z,101377.06
2022-09-22T11:03:40.610Z,101370.66
2022-09-22T11:06:37.828Z,101371.13
2022-09-22T11:09:43.951Z,101364.81
2022-09-22T11:12:51.124Z,101361.97
2022-09-22T11:15:20.558Z,101361.41
2022-09-22T11:18:08.156Z,101350.84
2022-09-22T11:20:38.599Z,101360.28
2022-09-22T11:23:22.916Z,101353.16
2022-09-22T11:26:01.824Z,101344.88
2022-09-22T11:28:34.251Z,101348.47
2022-09-22T11:31:00.808Z,101343.41
2022-09-22T11:33:40.275Z,101338.56
2022-09-22T11:36:51.922Z,101339.56
2022-09-22T11:39:36.831Z,101334.53
2022-09-22T11:42:27.005Z,101334.84
2022-09-22T11:45:15.612Z,101333.50
2022-09-22T11:47:47.808Z,101331.50
2022-09-22T11:50:16.902Z,101332.59
2022-09-22T11:53:20.934Z,101330.63
2022-09-22T11:55:56.748Z,101312.69
2022-09-22T11:58:28.848Z,101319.94
2022-09-22T12:01:05.467Z,101315.59
2022-09-22T12:03:40.191Z,101304.75
2022-09-22T12:06:12.557Z,101308.28
2022-09-22T12:09:03.477Z,101303.84
2022-09-22T12:11:35.998Z,101300.59
2022-09-22T12:14:03.524Z,101292.84
2022-09-22T12:16:42.599Z,101288.34
2022-09-22T12:19:37.235Z,101286.44
2022-09-22T12:22:37.322Z,101282.69
2022-09-22T12:25:04.040Z,101279.13
2022-09-22T12:27:30.473Z,101276.91
2022-09-22T12:30:13.384Z,101276.53
2022-09-22T12:32:42.859Z,101270.03
2022-09-22T12:35:31.411Z,101265.91
2022-09-22T12:38:02.107Z,101262.25
2022-09-22T12:40:31.090Z,101254.34
2022-09-22T12:42:59.298Z,101252.84
2022-09-22T12:45:42.484Z,101249.50
2022-09-22T12:48:16.514Z,101248.94
2022-09-22T12:50:44.891Z,101248.28
2022-09-22T12:53:21.485Z,101250.22
2022-09-22T12:55:52.637Z,101243.13
2022-09-22T12:58:19.293Z,101242.41
2022-09-22T13:00:46.769Z,101235.50
2022-09-22T13:03:25.591Z,101236.47
2022-09-22T13:05:56.365Z,101228.66
2022-09-22T13:08:25.736Z,101228.19
2022-09-22T13:10:55.214Z,101233.16
2022-09-22T13:13:39.875Z,101233.88
2022-09-22T13:16:15.489Z,101226.72
2022-09-22T13:18:58.707Z,101219.50
2022-09-22T13:21:28.249Z,101223.09
2022-09-22T13:23:54.595Z,101213.19
2022-09-22T13:26:38.804Z,101211.13
2022-09-22T13:29:20.366Z,101212.31
2022-09-22T13:31:52.760Z,101200.63
2022-09-22T13:34:35.956Z,101203.41
2022-09-22T13:37:13.556Z,101191.66
2022-09-22T13:39:47.171Z,101198.44
2022-09-22T13:42:19.296Z,101193.59
2022-09-22T13:44:49.561Z,101199.88
2022-09-22T13:50:22.085Z,101187.06
2022-09-22T13:52:51.259Z,101184.75
2022-09-22T13:55:33.230Z,101179.00
2022-09-22T13:58:00.907Z,101175.19
2022-09-22T14:00:31.506Z,101177.72
2022-09-22T14:03:00.799Z,101181.31
2022-09-22T14:05:31.834Z,101179.44
2022-09-22T14:08:12.105Z,101175.81
2022-09-22T14:10:41.999Z,101165.41
2022-09-22T14:13:44.083Z,101163.31
2022-09-22T14:16:17.207Z,101162.94
2022-09-22T14:18:47.692Z,101154.34
2022-09-22T14:21:14.497Z,101155.75
2022-09-22T14:23:47.404Z,101149.28
2022-09-22T14:26:27.886Z,101149.19
2022-09-22T14:28:59.001Z,101147.41
2022-09-22T14:31:29.252Z,101140.72
2022-09-22T14:33:56.591Z,101142.19
2022-09-22T14:36:25.863Z,101142.19
2022-09-22T14:39:09.503Z,101134.75
2022-09-22T14:41:37.513Z,101129.72
2022-09-22T14:44:37.799Z,101140.31
2022-09-22T14:47:40.803Z,101136.88
2022-09-22T14:50:13.576Z,101134.94
2022-09-22T14:52:48.670Z,101131.22
2022-09-22T14:55:34.366Z,101136.34
2022-09-22T14:58:05.383Z,101133.59
2022-09-22T15:00:50.977Z,101139.28
2022-09-22T15:03:21.575Z,101132.13
2022-09-22T15:05:50.145Z,101125.13
2022-09-22T15:08:21.443Z,101128.13
2022-09-22T15:10:58.335Z,101129.38
2022-09-22T15:13:46.199Z,101132.13
2022-09-22T15:16:37.664Z,101126.91
2022-09-22T15:19:04.940Z,101125.91
2022-09-22T15:21:37.084Z,101117.50
2022-09-22T15:24:05.201Z,101117.66
2022-09-22T15:26:35.081Z,101126.50
2022-09-22T15:29:02.614Z,101119.53
2022-09-22T15:31:29.865Z,101123.13
2022-09-22T15:33:59.976Z,101117.81
2022-09-22T15:36:31.783Z,101118.06
2022-09-22T15:39:13.786Z,101122.81
2022-09-22T15:41:40.209Z,101117.03
2022-09-22T15:44:08.576Z,101119.84
2022-09-22T15:46:37.586Z,101120.59
2022-09-22T15:49:14.953Z,101123.56
2022-09-22T15:51:41.381Z,101119.22
2022-09-22T15:54:14.267Z,101107.25
2022-09-22T15:56:41.821Z,101113.53
2022-09-22T15:59:19.699Z,101110.41
2022-09-22T16:01:46.572Z,101118.97
2022-09-22T16:04:13.022Z,101117.16
2022-09-22T16:06:48.049Z,101108.16
2022-09-22T16:09:17.187Z,101107.38
2022-09-22T16:11:43.785Z,101114.53
2022-09-22T16:14:11.535Z,101105.91
2022-09-22T16:16:38.741Z,101108.97
2022-09-22T16:19:09.296Z,101111.34
2022-09-22T16:21:38.671Z,101101.63
2022-09-22T16:24:08.286Z,101109.19
2022-09-22T16:26:36.880Z,101110.44
2022-09-22T16:29:04.583Z,101116.16
2022-09-22T16:31:31.341Z,101117.28
2022-09-22T16:34:01.316Z,101114.56
2022-09-22T16:36:31.533Z,101114.28
2022-09-22T16:38:57.940Z,101107.91
2022-09-22T16:41:29.294Z,101113.69
2022-09-22T16:43:57.085Z,101119.69
2022-09-22T16:46:28.597Z,101127.63
2022-09-22T16:49:17.148Z,101118.69
2022-09-22T16:51:48.696Z,101126.38
2022-09-22T16:54:15.993Z,101132.81
2022-09-22T16:56:45.976Z,101135.09
2022-09-22T16:59:16.161Z,101138.22
2022-09-22T17:01:43.910Z,101130.22
2022-09-22T17:04:13.118Z,101138.66
2022-09-22T17:06:41.547Z,101141.00
2022-09-22T17:09:09.070Z,101143.22
2022-09-22T17:11:39.088Z,101148.00
2022-09-22T17:14:12.219Z,101144.19
2022-09-22T17:16:43.000Z,101144.63
2022-09-22T17:19:11.765Z,101150.34
2022-09-22T17:21:40.116Z,101149.97
2022-09-22T17:24:09.302Z,101146.16
2022-09-22T17:26:37.755Z,101150.19
2022-09-22T17:29:06.415Z,101151.41
2022-09-22T17:31:34.694Z,101156.75
2022-09-22T17:34:01.776Z,101161.25
2022-09-22T17:36:28.973Z,101158.88
2022-09-22T17:38:58.056Z,101168.19
2022-09-22T17:41:33.370Z,101174.63
2022-09-22T17:44:02.899Z,101170.50
2022-09-22T17:46:31.767Z,101173.50
2022-09-22T17:49:17.068Z,101182.03
2022-09-22T17:52:03.202Z,101185.94
2022-09-22T17:54:58.672Z,101184.84
2022-09-22T17:57:30.723Z,101189.75
2022-09-22T17:59:58.161Z,101190.66
2022-09-22T18:02:32.238Z,101206.28
2022-09-22T18:04:58.714Z,101204.16
2022-09-22T18:07:26.677Z,101208.34
2022-09-22T18:09:55.407Z,101204.31
2022-09-22T18:12:24.586Z,101205.00
2022-09-22T18:14:53.035Z,101206.91
2022-09-22T18:17:22.834Z,101211.31
2022-09-22T18:19:49.342Z,101214.63
2022-09-22T18:22:21.153Z,101217.41
2022-09-22T18:24:55.072Z,101220.97
2022-09-22T18:27:28.296Z,101215.22
2022-09-22T18:29:58.450Z,101229.75
2022-09-22T18:32:28.103Z,101227.28
2022-09-22T18:34:55.235Z,101235.97
2022-09-22T18:37:23.202Z,101235.09
2022-09-22T18:39:50.463Z,101233.53
2022-09-22T18:42:22.686Z,101240.31
2022-09-22T18:44:49.097Z,101241.47
2022-09-22T18:47:18.425Z,101247.75
2022-09-22T18:49:48.073Z,101240.78
2022-09-22T18:52:16.170Z,101248.25
2022-09-22T18:54:43.802Z,101250.59
2022-09-22T18:57:14.060Z,101257.44
2022-09-22T18:59:41.212Z,101259.34
2022-09-22T19:02:11.818Z,101269.16
2022-09-22T19:04:38.850Z,101270.88
2022-09-22T19:07:23.979Z,101272.22
2022-09-22T19:09:52.331Z,101269.94
2022-09-22T19:12:20.348Z,101266.03
2022-09-22T19:14:48.081Z,101269.53
2022-09-22T19:17:17.160Z,101273.59
2022-09-22T19:19:46.582Z,101273.16
2022-09-22T19:22:13.002Z,101282.41
2022-09-22T19:24:41.245Z,101277.75
2022-09-22T19:27:09.116Z,101283.56
2022-09-22T19:29:35.937Z,101290.41
2022-09-22T19:32:03.526Z,101288.50
2022-09-22T19:34:30.455Z,101289.31
2022-09-22T19:36:58.229Z,101292.59
2022-09-22T19:39:25.443Z,101292.13
2022-09-22T19:41:52.502Z,101291.56
2022-09-22T19:44:22.136Z,101297.31
2022-09-22T19:46:49.291Z,101299.56
2022-09-22T19:49:16.608Z,101299.00
2022-09-22T19:51:43.130Z,101301.91
2022-09-22T19:54:10.352Z,101303.81
2022-09-22T19:56:37.126Z,101301.81
2022-09-22T19:59:07.424Z,101310.13
2022-09-22T20:01:37.739Z,101302.66
2022-09-22T20:04:05.427Z,101302.66
2022-09-22T20:06:33.394Z,101306.25
2022-09-22T20:09:02.839Z,101306.59
2022-09-22T20:11:34.901Z,101311.78
2022-09-22T20:14:19.988Z,101315.72
2022-09-22T20:16:51.211Z,101313.78
2022-09-22T20:19:17.938Z,101317.19
2022-09-22T20:21:45.683Z,101317.88
2022-09-22T20:24:15.206Z,101314.88
2022-09-22T20:26:43.289Z,101322.91
2022-09-22T20:29:10.595Z,101330.56
2022-09-22T20:31:37.580Z,101335.81
2022-09-22T20:34:07.607Z,101325.09
2022-09-22T20:36:37.101Z,101329.09
2022-09-22T20:39:05.588Z,101334.88
2022-09-22T20:41:32.608Z,101329.28
2022-09-22T20:43:59.246Z,101334.00
2022-09-22T20:46:25.843Z,101350.75
2022-09-22T20:48:55.300Z,101335.50
2022-09-22T20:51:23.210Z,101339.47
2022-09-22T20:53:49.695Z,101346.47
2022-09-22T20:56:16.198Z,101345.97
2022-09-22T20:58:44.972Z,101352.19
2022-09-22T21:01:14.567Z,101352.47
2022-09-22T21:03:41.096Z,101347.03
2022-09-22T21:06:09.615Z,101353.66
2022-09-22T21:09:01.157Z,101354.16
2022-09-22T21:11:28.440Z,101351.84
2022-09-22T21:14:01.109Z,101353.56
2022-09-22T21:16:31.561Z,101359.03
2022-09-22T21:19:02.392Z,101361.75
2022-09-22T21:21:33.751Z,101362.16
2022-09-22T21:24:02.959Z,101372.56
2022-09-22T21:26:30.915Z,101376.16
2022-09-22T21:28:58.314Z,101383.94
2022-09-22T21:31:25.489Z,101375.25
2022-09-22T21:33:52.173Z,101380.84
2022-09-22T21:36:20.987Z,101380.19
2022-09-22T21:38:49.084Z,101386.28
2022-09-22T21:41:21.110Z,101391.44
2022-09-22T21:43:49.901Z,101385.34
2022-09-22T21:46:22.138Z,101384.97
2022-09-22T21:48:48.714Z,101380.81
2022-09-22T21:51:19.482Z,101384.19
2022-09-22T21:53:47.971Z,101386.91
2022-09-22T21:56:16.369Z,101397.41
2022-09-22T21:58:45.598Z,101396.88
2022-09-22T22:01:32.645Z,101395.72
2022-09-22T22:04:00.768Z,101398.69
2022-09-22T22:06:29.885Z,101398.69
2022-09-22T22:09:07.888Z,101404.25
2022-09-22T22:11:36.892Z,101404.38
2022-09-22T22:14:05.854Z,101407.75
2022-09-22T22:16:35.248Z,101409.94
2022-09-22T22:19:02.037Z,101406.19
2022-09-22T22:21:30.009Z,101415.75
2022-09-22T22:24:19.275Z,101408.25
2022-09-22T22:26:51.669Z,101411.34
2022-09-22T22:29:19.713Z,101410.44
2022-09-22T22:31:48.883Z,101409.38
2022-09-22T22:34:17.094Z,101410.28
2022-09-22T22:36:44.150Z,101415.31
2022-09-22T22:39:11.306Z,101410.00
2022-09-22T22:41:39.224Z,101412.31
2022-09-22T22:44:07.104Z,101410.88
2022-09-22T22:46:34.540Z,101410.00
2022-09-22T22:49:01.064Z,101408.84
2022-09-22T22:51:28.610Z,101411.72
2022-09-22T22:53:55.727Z,101411.19
2022-09-22T22:56:24.838Z,101407.75
2022-09-22T22:58:51.784Z,101411.19
2022-09-22T23:01:23.524Z,101406.78
2022-09-22T23:03:52.792Z,101408.53
2022-09-22T23:06:35.710Z,101413.06
2022-09-22T23:09:03.936Z,101410.16
2022-09-22T23:11:37.051Z,101417.63
2022-09-22T23:14:06.093Z,101413.28
2022-09-22T23:16:35.193Z,101415.59
2022-09-22T23:19:06.077Z,101408.31
2022-09-22T23:21:32.546Z,101411.69
2022-09-22T23:24:00.865Z,101412.00
2022-09-22T23:26:29.077Z,101413.56
2022-09-22T23:28:58.487Z,101414.63
2022-09-22T23:31:25.977Z,101409.19
2022-09-22T23:33:54.175Z,101404.50
2022-09-22T23:36:26.149Z,101407.56
2022-09-22T23:38:54.162Z,101412.97
2022-09-22T23:41:20.662Z,101415.13
2022-09-22T23:43:47.082Z,101415.34
2022-09-22T23:46:13.564Z,101417.69
2022-09-22T23:48:40.191Z,101408.00
2022-09-22T23:51:06.914Z,101413.38
2022-09-22T23:53:37.202Z,101415.69
2022-09-22T23:56:05.594Z,101415.94
2022-09-22T23:58:32.877Z,101418.13
